createdAt,value
2023-03-18T00:00:26.490Z,11.14
2023-03-18T00:01:26.487Z,11.14
2023-03-18T00:02:26.499Z,11.14
2023-03-18T00:03:26.605Z,11.17
2023-03-18T00:04:26.454Z,11.18
2023-03-18T00:05:26.495Z,11.17
2023-03-18T00:06:26.439Z,11.17
2023-03-18T00:07:26.459Z,11.18
2023-03-18T00:08:26.508Z,11.19
2023-03-18T00:09:26.483Z,11.19
2023-03-18T00:10:26.454Z,11.18
2023-03-18T00:11:26.496Z,11.19
2023-03-18T00:12:26.612Z,11.18
2023-03-18T00:13:26.498Z,11.17
2023-03-18T00:14:26.492Z,11.14
2023-03-18T00:15:26.525Z,11.11
2023-03-18T00:16:26.637Z,11.10
2023-03-18T00:17:26.600Z,11.05
2023-03-18T00:18:26.343Z,11.05
2023-03-18T00:19:26.608Z,11.04
2023-03-18T00:20:26.294Z,11.02
2023-03-18T00:21:26.249Z,11.02
2023-03-18T00:22:26.251Z,11.00
2023-03-18T00:23:26.238Z,11.00
2023-03-18T00:24:26.254Z,10.99
2023-03-18T00:25:26.225Z,10.97
2023-03-18T00:26:26.207Z,10.99
2023-03-18T00:27:26.214Z,10.99
2023-03-18T00:28:26.187Z,10.96
2023-03-18T00:29:26.203Z,10.97
2023-03-18T00:30:26.159Z,10.99
2023-03-18T00:31:26.211Z,10.97
2023-03-18T00:32:26.607Z,11.00
2023-03-18T00:33:26.120Z,11.00
2023-03-18T00:34:26.154Z,11.02
2023-03-18T00:35:26.112Z,11.00
2023-03-18T00:36:26.084Z,11.04
2023-03-18T00:37:26.080Z,11.00
2023-03-18T00:38:26.246Z,11.00
2023-03-18T00:39:26.054Z,10.97
2023-03-18T00:40:26.067Z,10.99
2023-03-18T00:41:26.050Z,10.99
2023-03-18T00:42:26.019Z,10.99
2023-03-18T00:43:26.028Z,10.99
2023-03-18T00:44:25.996Z,11.00
2023-03-18T00:45:25.999Z,11.02
2023-03-18T00:46:26.114Z,11.02
2023-03-18T00:47:25.999Z,11.05
2023-03-18T00:48:25.952Z,11.07
2023-03-18T00:49:25.959Z,11.08
2023-03-18T00:50:25.927Z,11.08
2023-03-18T00:51:25.946Z,11.04
2023-03-18T00:52:25.938Z,11.04
2023-03-18T00:53:25.907Z,11.02
2023-03-18T00:54:25.887Z,11.04
2023-03-18T00:55:25.892Z,11.02
2023-03-18T00:56:25.880Z,11.00
2023-03-18T00:57:25.871Z,10.99
2023-03-18T00:58:25.877Z,10.96
2023-03-18T00:59:25.871Z,10.94
2023-03-18T01:00:25.821Z,10.94
2023-03-18T01:01:25.960Z,10.92
2023-03-18T01:02:25.903Z,10.92
2023-03-18T01:03:25.826Z,10.89
2023-03-18T01:04:25.804Z,10.87
2023-03-18T01:05:25.776Z,10.87
2023-03-18T01:06:25.793Z,10.86
2023-03-18T01:07:25.750Z,10.84
2023-03-18T01:08:25.728Z,10.84
2023-03-18T01:09:25.741Z,10.84
2023-03-18T01:10:25.717Z,10.82
2023-03-18T01:11:25.712Z,10.81
2023-03-18T01:12:25.752Z,10.81
2023-03-18T01:13:25.691Z,10.81
2023-03-18T01:14:25.662Z,10.76
2023-03-18T01:15:25.689Z,10.76
2023-03-18T01:16:25.716Z,10.75
2023-03-18T01:17:25.666Z,10.74
2023-03-18T01:18:25.636Z,10.74
2023-03-18T01:19:25.621Z,10.74
2023-03-18T01:20:25.683Z,10.71
2023-03-18T01:21:25.599Z,10.72
2023-03-18T01:22:25.580Z,10.68
2023-03-18T01:23:25.625Z,10.67
2023-03-18T01:24:25.554Z,10.67
2023-03-18T01:25:25.553Z,10.64
2023-03-18T01:26:25.674Z,10.64
2023-03-18T01:27:25.527Z,10.63
2023-03-18T01:28:25.514Z,10.60
2023-03-18T01:29:25.561Z,10.60
2023-03-18T01:30:25.511Z,10.57
2023-03-18T01:31:25.605Z,10.57
2023-03-18T01:32:25.466Z,10.56
2023-03-18T01:33:25.455Z,10.53
2023-03-18T01:34:25.454Z,10.54
2023-03-18T01:35:25.446Z,10.56
2023-03-18T01:36:25.431Z,10.54
2023-03-18T01:37:30.876Z,10.54
2023-03-18T01:38:25.626Z,10.56
2023-03-18T01:39:25.430Z,10.54
2023-03-18T01:40:25.396Z,10.57
2023-03-18T01:41:25.351Z,10.59
2023-03-18T01:42:25.368Z,10.57
2023-03-18T01:43:25.339Z,10.56
2023-03-18T01:44:25.331Z,10.57
2023-03-18T01:45:25.348Z,10.56
2023-03-18T01:46:25.349Z,10.54
2023-03-18T01:47:25.294Z,10.54
2023-03-18T01:48:25.296Z,10.56
2023-03-18T01:49:25.266Z,10.54
2023-03-18T01:50:25.277Z,10.53
2023-03-18T01:51:25.274Z,10.51
2023-03-18T01:52:25.274Z,10.49
2023-03-18T01:53:25.233Z,10.51
2023-03-18T01:54:25.229Z,10.49
2023-03-18T01:55:25.206Z,10.51
2023-03-18T01:56:25.209Z,10.51
2023-03-18T01:57:25.197Z,10.48
2023-03-18T01:58:25.188Z,10.48
2023-03-18T01:59:25.153Z,10.46
2023-03-18T02:00:25.160Z,10.49
2023-03-18T02:01:25.253Z,10.44
2023-03-18T02:02:25.134Z,10.48
2023-03-18T02:03:25.129Z,10.44
2023-03-18T02:04:25.110Z,10.42
2023-03-18T02:05:30.348Z,10.41
2023-03-18T02:06:25.135Z,10.40
2023-03-18T02:07:25.103Z,10.40
2023-03-18T02:08:25.062Z,10.38
2023-03-18T02:09:25.057Z,10.37
2023-03-18T02:10:25.045Z,10.34
2023-03-18T02:11:30.278Z,10.34
2023-03-18T02:12:25.024Z,10.33
2023-03-18T02:13:25.022Z,10.33
2023-03-18T02:14:25.000Z,10.30
2023-03-18T02:15:24.985Z,10.30
2023-03-18T02:16:25.028Z,10.31
2023-03-18T02:17:24.969Z,10.31
2023-03-18T02:18:24.980Z,10.33
2023-03-18T02:19:24.945Z,10.34
2023-03-18T02:20:24.935Z,10.33
2023-03-18T02:21:24.985Z,10.35
2023-03-18T02:22:24.914Z,10.35
2023-03-18T02:23:24.889Z,10.37
2023-03-18T02:24:25.045Z,10.38
2023-03-18T02:25:24.864Z,10.40
2023-03-18T02:26:24.877Z,10.40
2023-03-18T02:27:24.876Z,10.38
2023-03-18T02:28:24.850Z,10.37
2023-03-18T02:29:24.829Z,10.37
2023-03-18T02:30:24.829Z,10.35
2023-03-18T02:31:24.969Z,10.34
2023-03-18T02:32:24.804Z,10.33
2023-03-18T02:33:24.816Z,10.33
2023-03-18T02:34:24.790Z,10.33
2023-03-18T02:35:24.806Z,10.31
2023-03-18T02:36:24.760Z,10.30
2023-03-18T02:37:24.777Z,10.31
2023-03-18T02:38:24.732Z,10.30
2023-03-18T02:39:24.717Z,10.31
2023-03-18T02:40:24.716Z,10.28
2023-03-18T02:41:24.720Z,10.28
2023-03-18T02:42:24.697Z,10.26
2023-03-18T02:43:24.705Z,10.25
2023-03-18T02:44:24.670Z,10.23
2023-03-18T02:45:24.667Z,10.26
2023-03-18T02:46:24.726Z,10.26
2023-03-18T02:47:24.643Z,10.25
2023-03-18T02:48:24.617Z,10.23
2023-03-18T02:49:24.601Z,10.20
2023-03-18T02:50:24.625Z,10.19
2023-03-18T02:51:24.579Z,10.20
2023-03-18T02:52:24.586Z,10.19
2023-03-18T02:53:24.569Z,10.19
2023-03-18T02:54:24.562Z,10.17
2023-03-18T02:55:24.541Z,10.17
2023-03-18T02:56:24.547Z,10.16
2023-03-18T02:57:24.534Z,10.15
2023-03-18T02:58:24.570Z,10.13
2023-03-18T02:59:24.496Z,10.13
2023-03-18T03:00:24.503Z,10.10
2023-03-18T03:01:24.523Z,10.09
2023-03-18T03:02:24.599Z,10.12
2023-03-18T03:03:24.498Z,10.10
2023-03-18T03:04:24.480Z,10.10
2023-03-18T03:05:24.422Z,10.07
2023-03-18T03:06:24.422Z,10.07
2023-03-18T03:07:24.508Z,10.05
2023-03-18T03:08:24.422Z,10.04
2023-03-18T03:09:24.371Z,10.01
2023-03-18T03:10:24.397Z,9.99
2023-03-18T03:11:24.360Z,9.94
2023-03-18T03:12:24.352Z,9.92
2023-03-18T03:13:24.341Z,9.89
2023-03-18T03:14:24.367Z,9.84
2023-03-18T03:15:24.344Z,9.82
2023-03-18T03:16:24.333Z,9.76
2023-03-18T03:17:24.312Z,9.74
2023-03-18T03:18:24.298Z,9.72
2023-03-18T03:19:24.273Z,9.68
2023-03-18T03:20:24.287Z,9.68
2023-03-18T03:21:24.270Z,9.65
2023-03-18T03:22:24.257Z,9.65
2023-03-18T03:23:24.221Z,9.62
2023-03-18T03:24:24.224Z,9.61
2023-03-18T03:25:24.196Z,9.59
2023-03-18T03:26:24.213Z,9.58
2023-03-18T03:27:24.417Z,9.55
2023-03-18T03:28:24.173Z,9.51
2023-03-18T03:29:24.160Z,9.51
2023-03-18T03:30:24.152Z,9.47
2023-03-18T03:31:24.260Z,9.44
2023-03-18T03:32:24.151Z,9.43
2023-03-18T03:33:24.118Z,9.41
2023-03-18T03:34:24.111Z,9.37
2023-03-18T03:35:24.093Z,9.36
2023-03-18T03:36:24.092Z,9.32
2023-03-18T03:37:24.074Z,9.32
2023-03-18T03:38:24.082Z,9.32
2023-03-18T03:39:24.073Z,9.29
2023-03-18T03:40:24.073Z,9.28
2023-03-18T03:41:24.143Z,9.31
2023-03-18T03:42:24.096Z,9.31
2023-03-18T03:43:24.094Z,9.31
2023-03-18T03:44:24.054Z,9.29
2023-03-18T03:45:24.150Z,9.29
2023-03-18T03:46:24.178Z,9.28
2023-03-18T03:47:24.105Z,9.26
2023-03-18T03:48:24.076Z,9.25
2023-03-18T03:49:24.087Z,9.23
2023-03-18T03:50:24.030Z,9.22
2023-03-18T03:51:24.153Z,9.22
2023-03-18T03:52:24.070Z,9.21
2023-03-18T03:53:23.997Z,9.19
2023-03-18T03:54:24.033Z,9.18
2023-03-18T03:55:23.890Z,9.16
2023-03-18T03:56:23.891Z,9.14
2023-03-18T03:57:24.131Z,9.13
2023-03-18T03:58:23.826Z,9.06
2023-03-18T03:59:23.825Z,9.04
2023-03-18T04:00:23.825Z,9.04
2023-03-18T04:01:23.815Z,9.02
2023-03-18T04:02:23.921Z,9.00
2023-03-18T04:03:23.815Z,8.99
2023-03-18T04:04:23.816Z,8.97
2023-03-18T04:05:23.775Z,8.97
2023-03-18T04:06:30.833Z,9.00
2023-03-18T04:07:23.751Z,9.00
2023-03-18T04:08:23.730Z,9.03
2023-03-18T04:09:23.752Z,9.06
2023-03-18T04:10:23.710Z,9.10
2023-03-18T04:11:23.717Z,9.18
2023-03-18T04:12:23.696Z,9.22
2023-03-18T04:13:23.666Z,9.25
2023-03-18T04:14:23.689Z,9.28
2023-03-18T04:15:23.659Z,9.34
2023-03-18T04:16:23.710Z,9.36
2023-03-18T04:17:23.622Z,9.40
2023-03-18T04:18:23.603Z,9.41
2023-03-18T04:19:23.601Z,9.43
2023-03-18T04:20:23.600Z,9.43
2023-03-18T04:21:23.595Z,9.44
2023-03-18T04:22:23.565Z,9.48
2023-03-18T04:23:23.560Z,9.48
2023-03-18T04:24:23.539Z,9.50
2023-03-18T04:25:23.573Z,9.51
2023-03-18T04:26:23.520Z,9.54
2023-03-18T04:27:23.539Z,9.55
2023-03-18T04:28:23.500Z,9.56
2023-03-18T04:29:23.500Z,9.58
2023-03-18T04:30:23.508Z,9.59
2023-03-18T04:31:23.552Z,9.61
2023-03-18T04:32:23.449Z,9.65
2023-03-18T04:33:23.449Z,9.64
2023-03-18T04:34:23.439Z,9.66
2023-03-18T04:35:23.460Z,9.66
2023-03-18T04:36:23.421Z,9.66
2023-03-18T04:37:23.402Z,9.65
2023-03-18T04:38:23.379Z,9.65
2023-03-18T04:39:23.378Z,9.66
2023-03-18T04:40:23.378Z,9.69
2023-03-18T04:41:23.382Z,9.66
2023-03-18T04:42:23.339Z,9.69
2023-03-18T04:43:23.343Z,9.68
2023-03-18T04:44:23.319Z,9.66
2023-03-18T04:45:23.322Z,9.64
2023-03-18T04:46:23.354Z,9.62
2023-03-18T04:47:23.314Z,9.59
2023-03-18T04:48:23.271Z,9.58
2023-03-18T04:49:23.269Z,9.55
2023-03-18T04:50:23.254Z,9.51
2023-03-18T04:51:23.246Z,9.48
2023-03-18T04:52:23.247Z,9.46
2023-03-18T04:53:23.217Z,9.47
2023-03-18T04:54:23.194Z,9.47
2023-03-18T04:55:23.210Z,9.50
2023-03-18T04:56:23.189Z,9.50
2023-03-18T04:57:23.191Z,9.48
2023-03-18T04:58:23.171Z,9.48
2023-03-18T04:59:23.158Z,9.48
2023-03-18T05:00:23.139Z,9.48
2023-03-18T05:01:23.195Z,9.48
2023-03-18T05:02:23.120Z,9.48
2023-03-18T05:03:23.138Z,9.50
2023-03-18T05:04:23.090Z,9.47
2023-03-18T05:05:23.088Z,9.46
2023-03-18T05:06:23.155Z,9.44
2023-03-18T05:07:23.060Z,9.41
2023-03-18T05:08:23.085Z,9.40
2023-03-18T05:09:23.072Z,9.36
2023-03-18T05:10:23.051Z,9.36
2023-03-18T05:11:23.012Z,9.37
2023-03-18T05:12:23.003Z,9.37
2023-03-18T05:13:22.999Z,9.37
2023-03-18T05:14:23.003Z,9.36
2023-03-18T05:15:23.021Z,9.37
2023-03-18T05:16:22.996Z,9.37
2023-03-18T05:17:22.971Z,9.34
2023-03-18T05:18:22.936Z,9.31
2023-03-18T05:19:22.934Z,9.32
2023-03-18T05:20:22.910Z,9.34
2023-03-18T05:21:22.939Z,9.36
2023-03-18T05:22:22.899Z,9.36
2023-03-18T05:23:22.883Z,9.31
2023-03-18T05:24:22.872Z,9.29
2023-03-18T05:25:22.880Z,9.25
2023-03-18T05:26:22.840Z,9.26
2023-03-18T05:27:22.901Z,9.25
2023-03-18T05:28:22.848Z,9.26
2023-03-18T05:29:22.820Z,9.29
2023-03-18T05:30:22.808Z,9.29
2023-03-18T05:31:22.820Z,9.28
2023-03-18T05:32:22.801Z,9.31
2023-03-18T05:33:23.351Z,9.31
2023-03-18T05:34:22.753Z,9.32
2023-03-18T05:35:22.760Z,9.32
2023-03-18T05:36:22.736Z,9.32
2023-03-18T05:37:22.744Z,9.32
2023-03-18T05:38:22.708Z,9.34
2023-03-18T05:39:22.712Z,9.34
2023-03-18T05:40:22.680Z,9.32
2023-03-18T05:41:22.680Z,9.36
2023-03-18T05:42:22.670Z,9.37
2023-03-18T05:43:22.660Z,9.44
2023-03-18T05:44:22.639Z,9.46
2023-03-18T05:45:22.629Z,9.50
2023-03-18T05:46:22.632Z,9.55
2023-03-18T05:47:22.619Z,9.58
2023-03-18T05:48:22.630Z,9.61
2023-03-18T05:49:22.769Z,9.65
2023-03-18T05:50:22.572Z,9.66
2023-03-18T05:51:22.560Z,9.66
2023-03-18T05:52:22.718Z,9.68
2023-03-18T05:53:22.571Z,9.72
2023-03-18T05:54:22.536Z,9.72
2023-03-18T05:55:22.551Z,9.74
2023-03-18T05:56:22.512Z,9.76
2023-03-18T05:57:22.677Z,9.79
2023-03-18T05:58:22.556Z,9.82
2023-03-18T05:59:22.564Z,9.84
2023-03-18T06:00:22.844Z,9.86
2023-03-18T06:01:22.605Z,9.86
2023-03-18T06:02:22.596Z,9.87
2023-03-18T06:03:22.612Z,9.87
2023-03-18T06:04:22.577Z,9.86
2023-03-18T06:05:22.629Z,9.89
2023-03-18T06:06:22.649Z,9.89
2023-03-18T06:07:22.635Z,9.92
2023-03-18T06:08:22.626Z,9.97
2023-03-18T06:09:22.658Z,9.98
2023-03-18T06:10:22.437Z,9.98
2023-03-18T06:11:22.667Z,9.99
2023-03-18T06:12:22.338Z,10.02
2023-03-18T06:13:22.339Z,10.05
2023-03-18T06:14:22.327Z,10.05
2023-03-18T06:15:22.303Z,10.09
2023-03-18T06:16:22.540Z,10.09
2023-03-18T06:17:22.288Z,10.10
2023-03-18T06:18:22.269Z,10.10
2023-03-18T06:19:22.257Z,10.12
2023-03-18T06:20:22.306Z,10.16
2023-03-18T06:21:22.421Z,10.19
2023-03-18T06:22:22.224Z,10.19
2023-03-18T06:23:22.215Z,10.20
2023-03-18T06:24:22.199Z,10.20
2023-03-18T06:25:22.225Z,10.22
2023-03-18T06:26:22.176Z,10.25
2023-03-18T06:27:22.190Z,10.28
2023-03-18T06:28:22.153Z,10.31
2023-03-18T06:29:22.160Z,10.35
2023-03-18T06:30:22.158Z,10.38
2023-03-18T06:31:22.153Z,10.40
2023-03-18T06:32:22.116Z,10.41
2023-03-18T06:33:22.098Z,10.42
2023-03-18T06:34:22.075Z,10.41
2023-03-18T06:35:22.080Z,10.41
2023-03-18T06:36:22.114Z,10.42
2023-03-18T06:37:22.069Z,10.46
2023-03-18T06:38:22.038Z,10.44
2023-03-18T06:39:22.044Z,10.48
2023-03-18T06:40:22.016Z,10.51
2023-03-18T06:41:22.031Z,10.54
2023-03-18T06:42:22.011Z,10.57
2023-03-18T06:43:21.994Z,10.59
2023-03-18T06:44:21.977Z,10.61
2023-03-18T06:45:22.012Z,10.61
2023-03-18T06:46:22.257Z,10.63
2023-03-18T06:47:21.976Z,10.63
2023-03-18T06:48:21.941Z,10.67
2023-03-18T06:49:21.921Z,10.64
2023-03-18T06:50:21.919Z,10.63
2023-03-18T06:51:21.923Z,10.64
2023-03-18T06:52:21.877Z,10.67
2023-03-18T06:53:21.894Z,10.69
2023-03-18T06:54:21.862Z,10.71
2023-03-18T06:55:21.876Z,10.71
2023-03-18T06:56:21.869Z,10.74
2023-03-18T06:57:21.837Z,10.74
2023-03-18T06:58:21.829Z,10.75
2023-03-18T06:59:21.810Z,10.76
2023-03-18T07:00:21.834Z,10.78
2023-03-18T07:01:21.816Z,10.82
2023-03-18T07:02:21.790Z,10.84
2023-03-18T07:03:21.780Z,10.87
2023-03-18T07:04:21.785Z,10.89
2023-03-18T07:05:21.748Z,10.90
2023-03-18T07:06:21.730Z,10.92
2023-03-18T07:07:21.755Z,10.93
2023-03-18T07:08:21.705Z,10.93
2023-03-18T07:09:21.700Z,10.93
2023-03-18T07:10:21.716Z,10.97
2023-03-18T07:11:21.698Z,10.97
2023-03-18T07:12:21.660Z,10.99
2023-03-18T07:13:21.692Z,11.04
2023-03-18T07:14:21.648Z,11.07
2023-03-18T07:15:21.634Z,11.11
2023-03-18T07:16:21.637Z,11.14
2023-03-18T07:17:21.611Z,11.18
2023-03-18T07:18:21.589Z,11.19
2023-03-18T07:19:21.629Z,11.23
2023-03-18T07:20:21.568Z,11.26
2023-03-18T07:21:21.568Z,11.29
2023-03-18T07:22:21.547Z,11.29
2023-03-18T07:23:21.561Z,11.30
2023-03-18T07:24:21.521Z,11.33
2023-03-18T07:25:22.904Z,11.36
2023-03-18T07:26:21.509Z,11.37
2023-03-18T07:27:21.499Z,11.40
2023-03-18T07:28:21.488Z,11.43
2023-03-18T07:29:21.509Z,11.43
2023-03-18T07:30:21.493Z,11.45
2023-03-18T07:31:28.606Z,11.45
2023-03-18T07:32:21.432Z,11.45
2023-03-18T07:33:21.435Z,11.45
2023-03-18T07:34:24.109Z,11.48
2023-03-18T07:35:21.400Z,11.48
2023-03-18T07:36:21.403Z,11.50
2023-03-18T07:37:21.385Z,11.48
2023-03-18T07:38:21.377Z,11.51
2023-03-18T07:39:21.400Z,11.52
2023-03-18T07:40:21.345Z,11.55
2023-03-18T07:41:21.343Z,11.57
2023-03-18T07:42:21.320Z,11.62
2023-03-18T07:43:21.334Z,11.65
2023-03-18T07:44:21.312Z,11.66
2023-03-18T07:45:21.325Z,11.69
2023-03-18T07:46:21.326Z,11.69
2023-03-18T07:47:21.281Z,11.73
2023-03-18T07:48:21.253Z,11.75
2023-03-18T07:49:21.250Z,11.77
2023-03-18T07:50:21.271Z,11.77
2023-03-18T07:51:21.231Z,11.80
2023-03-18T07:52:21.230Z,11.83
2023-03-18T07:53:21.197Z,11.83
2023-03-18T07:54:21.220Z,11.83
2023-03-18T07:55:21.210Z,11.84
2023-03-18T07:56:21.196Z,11.84
2023-03-18T07:57:21.214Z,11.83
2023-03-18T07:58:21.141Z,11.86
2023-03-18T07:59:21.151Z,11.86
2023-03-18T08:00:21.141Z,11.86
2023-03-18T08:01:21.131Z,11.86
2023-03-18T08:02:21.115Z,11.84
2023-03-18T08:03:21.111Z,11.87
2023-03-18T08:04:21.237Z,11.86
2023-03-18T08:05:21.074Z,11.86
2023-03-18T08:06:21.296Z,11.88
2023-03-18T08:07:21.074Z,11.88
2023-03-18T08:08:21.058Z,11.90
2023-03-18T08:09:21.025Z,11.91
2023-03-18T08:10:21.028Z,11.91
2023-03-18T08:11:21.014Z,11.90
2023-03-18T08:12:20.999Z,11.88
2023-03-18T08:13:20.974Z,11.88
2023-03-18T08:14:20.977Z,11.88
2023-03-18T08:15:20.953Z,11.87
2023-03-18T08:16:20.980Z,11.86
2023-03-18T08:17:20.949Z,11.86
2023-03-18T08:18:20.926Z,11.84
2023-03-18T08:19:20.916Z,11.86
2023-03-18T08:20:20.902Z,11.86
2023-03-18T08:21:20.881Z,11.87
2023-03-18T08:22:20.887Z,11.84
2023-03-18T08:23:20.874Z,11.86
2023-03-18T08:24:20.860Z,11.84
2023-03-18T08:25:20.853Z,11.84
2023-03-18T08:26:20.835Z,11.84
2023-03-18T08:27:20.814Z,11.83
2023-03-18T08:28:20.842Z,11.86
2023-03-18T08:29:20.806Z,11.84
2023-03-18T08:30:20.824Z,11.86
2023-03-18T08:31:20.768Z,11.87
2023-03-18T08:32:20.770Z,11.90
2023-03-18T08:33:20.758Z,11.90
2023-03-18T08:34:20.843Z,11.94
2023-03-18T08:35:21.428Z,11.94
2023-03-18T08:36:20.735Z,11.99
2023-03-18T08:37:20.706Z,11.99
2023-03-18T08:38:20.703Z,12.03
2023-03-18T08:39:20.711Z,12.03
2023-03-18T08:40:20.697Z,12.09
2023-03-18T08:41:20.674Z,12.10
2023-03-18T08:42:20.679Z,12.10
2023-03-18T08:43:20.642Z,12.12
2023-03-18T08:44:20.648Z,12.17
2023-03-18T08:45:20.655Z,12.20
2023-03-18T08:46:20.658Z,12.21
2023-03-18T08:47:20.607Z,12.22
2023-03-18T08:48:20.617Z,12.24
2023-03-18T08:49:20.596Z,12.25
2023-03-18T08:50:20.609Z,12.28
2023-03-18T08:51:20.561Z,12.29
2023-03-18T08:52:20.549Z,12.35
2023-03-18T08:53:20.538Z,12.36
2023-03-18T08:54:20.541Z,12.37
2023-03-18T08:55:20.570Z,12.40
2023-03-18T08:56:20.544Z,12.43
2023-03-18T08:57:20.533Z,12.45
2023-03-18T08:58:20.484Z,12.49
2023-03-18T08:59:20.489Z,12.50
2023-03-18T09:00:20.483Z,12.57
2023-03-18T09:01:20.537Z,12.61
2023-03-18T09:02:20.467Z,12.64
2023-03-18T09:03:20.432Z,12.67
2023-03-18T09:04:20.423Z,12.70
2023-03-18T09:05:20.414Z,12.78
2023-03-18T09:06:20.411Z,12.83
2023-03-18T09:07:20.383Z,12.90
2023-03-18T09:08:20.390Z,12.97
2023-03-18T09:09:21.541Z,13.05
2023-03-18T09:10:20.388Z,13.09
2023-03-18T09:11:20.535Z,13.09
2023-03-18T09:12:20.356Z,13.11
2023-03-18T09:13:20.324Z,13.13
2023-03-18T09:14:20.339Z,13.15
2023-03-18T09:15:20.313Z,13.16
2023-03-18T09:16:20.338Z,13.16
2023-03-18T09:17:20.262Z,13.19
2023-03-18T09:18:20.284Z,13.18
2023-03-18T09:19:20.254Z,13.18
2023-03-18T09:20:20.244Z,13.19
2023-03-18T09:21:20.297Z,13.18
2023-03-18T09:22:20.230Z,13.13
2023-03-18T09:23:20.194Z,13.09
2023-03-18T09:24:20.201Z,13.09
2023-03-18T09:25:20.202Z,13.04
2023-03-18T09:26:20.191Z,13.05
2023-03-18T09:27:20.194Z,13.04
2023-03-18T09:28:20.144Z,13.03
2023-03-18T09:29:20.140Z,13.05
2023-03-18T09:30:20.163Z,13.08
2023-03-18T09:31:20.227Z,13.08
2023-03-18T09:32:20.155Z,13.11
2023-03-18T09:33:20.082Z,13.13
2023-03-18T09:34:20.125Z,13.16
2023-03-18T09:35:20.122Z,13.19
2023-03-18T09:36:20.838Z,13.20
2023-03-18T09:37:20.115Z,13.19
2023-03-18T09:38:20.064Z,13.20
2023-03-18T09:39:20.021Z,13.20
2023-03-18T09:40:20.011Z,13.23
2023-03-18T09:41:20.017Z,13.23
2023-03-18T09:42:19.993Z,13.25
2023-03-18T09:43:19.998Z,13.25
2023-03-18T09:44:19.975Z,13.27
2023-03-18T09:45:19.942Z,13.23
2023-03-18T09:46:20.118Z,13.27
2023-03-18T09:47:20.001Z,13.30
2023-03-18T09:48:19.932Z,13.33
2023-03-18T09:49:19.944Z,13.31
2023-03-18T09:50:19.903Z,13.33
2023-03-18T09:51:19.882Z,13.31
2023-03-18T09:52:19.891Z,13.31
2023-03-18T09:53:19.863Z,13.31
2023-03-18T09:54:19.875Z,13.25
2023-03-18T09:55:19.843Z,13.23
2023-03-18T09:56:19.831Z,13.22
2023-03-18T09:57:19.824Z,13.22
2023-03-18T09:58:19.818Z,13.20
2023-03-18T09:59:19.807Z,13.22
2023-03-18T10:00:19.795Z,13.25
2023-03-18T10:01:19.802Z,13.28
2023-03-18T10:02:19.792Z,13.35
2023-03-18T10:03:19.760Z,13.38
2023-03-18T10:04:19.792Z,13.44
2023-03-18T10:05:19.724Z,13.53
2023-03-18T10:06:19.802Z,13.56
2023-03-18T10:07:19.717Z,13.60
2023-03-18T10:08:19.705Z,13.63
2023-03-18T10:09:19.693Z,13.65
2023-03-18T10:10:19.685Z,13.60
2023-03-18T10:11:19.681Z,13.59
2023-03-18T10:12:19.678Z,13.62
2023-03-18T10:13:19.666Z,13.60
2023-03-18T10:14:19.641Z,13.63
2023-03-18T10:15:19.617Z,13.62
2023-03-18T10:16:19.752Z,13.67
2023-03-18T10:17:19.614Z,13.68
2023-03-18T10:18:19.605Z,13.71
2023-03-18T10:19:19.576Z,13.78
2023-03-18T10:20:19.566Z,13.83
2023-03-18T10:21:19.567Z,13.87
2023-03-18T10:22:19.556Z,13.92
2023-03-18T10:23:19.595Z,13.95
2023-03-18T10:24:19.538Z,13.96
2023-03-18T10:25:21.201Z,13.99
2023-03-18T10:26:19.519Z,13.95
2023-03-18T10:27:19.491Z,13.90
2023-03-18T10:28:19.485Z,13.90
2023-03-18T10:29:19.469Z,13.92
2023-03-18T10:30:19.460Z,13.99
2023-03-18T10:31:19.555Z,14.10
2023-03-18T10:32:19.440Z,14.29
2023-03-18T10:33:19.443Z,14.47
2023-03-18T10:34:19.440Z,14.66
2023-03-18T10:35:19.401Z,14.85
2023-03-18T10:36:19.457Z,14.99
2023-03-18T10:37:19.410Z,15.02
2023-03-18T10:38:19.374Z,15.00
2023-03-18T10:39:19.363Z,14.96
2023-03-18T10:40:19.350Z,14.97
2023-03-18T10:41:19.323Z,15.00
2023-03-18T10:42:19.358Z,15.07
2023-03-18T10:43:19.316Z,15.25
2023-03-18T10:44:19.314Z,15.33
2023-03-18T10:45:19.298Z,15.37
2023-03-18T10:46:19.329Z,15.44
2023-03-18T10:47:19.398Z,15.36
2023-03-18T10:48:19.289Z,15.40
2023-03-18T10:49:19.246Z,15.27
2023-03-18T10:50:19.235Z,15.33
2023-03-18T10:51:19.215Z,15.29
2023-03-18T10:52:19.230Z,15.33
2023-03-18T10:53:19.192Z,15.35
2023-03-18T10:54:19.284Z,15.36
2023-03-18T10:55:19.175Z,15.33
2023-03-18T10:56:19.179Z,15.36
2023-03-18T10:57:19.161Z,15.43
2023-03-18T10:58:19.164Z,15.49
2023-03-18T10:59:19.128Z,15.43
2023-03-18T11:00:19.140Z,15.64
2023-03-18T11:01:21.176Z,15.73
2023-03-18T11:02:19.208Z,15.67
2023-03-18T11:03:19.089Z,15.70
2023-03-18T11:04:19.108Z,15.72
2023-03-18T11:05:19.119Z,15.59
2023-03-18T11:06:19.075Z,15.57
2023-03-18T11:07:19.038Z,15.40
2023-03-18T11:08:19.089Z,15.33
2023-03-18T11:09:19.013Z,15.29
2023-03-18T11:10:19.038Z,15.31
2023-03-18T11:11:18.996Z,15.44
2023-03-18T11:12:19.502Z,15.42
2023-03-18T11:13:18.988Z,15.52
2023-03-18T11:14:19.384Z,15.52
2023-03-18T11:15:18.951Z,15.52
2023-03-18T11:16:18.968Z,15.57
2023-03-18T11:17:18.929Z,15.52
2023-03-18T11:18:19.836Z,15.59
2023-03-18T11:19:18.943Z,15.68
2023-03-18T11:20:18.938Z,15.76
2023-03-18T11:21:18.878Z,15.84
2023-03-18T11:22:18.881Z,15.94
2023-03-18T11:23:18.869Z,15.97
2023-03-18T11:24:18.861Z,16.05
2023-03-18T11:25:18.844Z,16.13
2023-03-18T11:26:18.861Z,16.05
2023-03-18T11:27:18.824Z,16.00
2023-03-18T11:28:18.823Z,16.00
2023-03-18T11:29:18.796Z,16.00
2023-03-18T11:30:31.256Z,15.92
2023-03-18T11:31:19.893Z,15.90
2023-03-18T11:32:18.774Z,15.72
2023-03-18T11:33:18.753Z,15.72
2023-03-18T11:34:18.771Z,15.76
2023-03-18T11:35:18.847Z,15.84
2023-03-18T11:36:18.745Z,16.00
2023-03-18T11:37:18.711Z,16.13
2023-03-18T11:38:18.706Z,16.28
2023-03-18T11:39:18.690Z,16.31
2023-03-18T11:40:18.710Z,16.15
2023-03-18T11:41:18.653Z,16.08
2023-03-18T11:42:18.650Z,15.91
2023-03-18T11:43:18.648Z,15.91
2023-03-18T11:44:18.637Z,15.82
2023-03-18T11:45:19.087Z,15.72
2023-03-18T11:46:18.626Z,15.65
2023-03-18T11:47:18.597Z,15.62
2023-03-18T11:48:18.640Z,15.61
2023-03-18T11:49:18.603Z,15.58
2023-03-18T11:50:18.559Z,15.62
2023-03-18T11:51:18.552Z,15.70
2023-03-18T11:52:18.547Z,15.73
2023-03-18T11:53:18.544Z,15.70
2023-03-18T11:54:18.526Z,15.73
2023-03-18T11:55:18.519Z,15.79
2023-03-18T11:56:18.519Z,15.76
2023-03-18T11:57:18.485Z,15.88
2023-03-18T11:58:18.497Z,16.02
2023-03-18T11:59:18.464Z,16.12
2023-03-18T12:00:18.465Z,16.13
2023-03-18T12:01:18.462Z,16.16
2023-03-18T12:02:18.531Z,16.15
2023-03-18T12:03:18.434Z,16.21
2023-03-18T12:04:18.415Z,16.32
2023-03-18T12:05:18.464Z,16.50
2023-03-18T12:06:18.373Z,16.56
2023-03-18T12:07:18.375Z,16.61
2023-03-18T12:08:18.354Z,16.60
2023-03-18T12:09:18.359Z,16.58
2023-03-18T12:10:18.410Z,16.64
2023-03-18T12:11:18.337Z,16.65
2023-03-18T12:12:18.314Z,16.58
2023-03-18T12:13:18.338Z,16.47
2023-03-18T12:14:18.324Z,16.31
2023-03-18T12:15:18.308Z,16.12
2023-03-18T12:16:18.317Z,15.95
2023-03-18T12:17:18.286Z,15.76
2023-03-18T12:18:18.262Z,15.64
2023-03-18T12:19:18.269Z,15.57
2023-03-18T12:20:18.274Z,15.49
2023-03-18T12:21:18.247Z,15.47
2023-03-18T12:22:18.226Z,15.55
2023-03-18T12:23:18.340Z,15.65
2023-03-18T12:24:18.234Z,15.79
2023-03-18T12:25:18.201Z,15.90
2023-03-18T12:26:18.189Z,15.97
2023-03-18T12:27:18.207Z,16.09
2023-03-18T12:28:18.150Z,16.21
2023-03-18T12:29:18.138Z,16.23
2023-03-18T12:30:18.162Z,16.24
2023-03-18T12:31:18.183Z,16.28
2023-03-18T12:32:18.151Z,16.31
2023-03-18T12:33:18.120Z,16.33
2023-03-18T12:34:18.101Z,16.49
2023-03-18T12:35:20.282Z,16.53
2023-03-18T12:36:18.102Z,16.58
2023-03-18T12:37:18.100Z,16.66
2023-03-18T12:38:18.081Z,16.78
2023-03-18T12:39:18.032Z,17.01
2023-03-18T12:40:18.052Z,17.15
2023-03-18T12:41:18.023Z,17.33
2023-03-18T12:42:18.039Z,17.44
2023-03-18T12:43:18.076Z,17.56
2023-03-18T12:44:17.962Z,17.65
2023-03-18T12:45:17.988Z,17.83
2023-03-18T12:46:18.014Z,17.90
2023-03-18T12:47:18.037Z,18.13
2023-03-18T12:48:17.942Z,18.41
2023-03-18T12:49:17.953Z,18.47
2023-03-18T12:50:17.944Z,18.38
2023-03-18T12:51:17.949Z,18.25
2023-03-18T12:52:17.873Z,18.01
2023-03-18T12:53:17.875Z,17.87
2023-03-18T12:54:17.867Z,17.71
2023-03-18T12:55:17.879Z,17.52
2023-03-18T12:56:17.867Z,17.41
2023-03-18T12:57:17.898Z,17.33
2023-03-18T12:58:17.844Z,17.34